sensor_id;sensor_type;location;lat;lon;timestamp;pressure;altitude;pressure_sealevel;temperature
61703;BMP280;47622;47.726;3.298;2022-11-20T00:00:03;98976.63;;;6.36
61703;BMP280;47622;47.726;3.298;2022-11-20T00:02:29;98983.91;;;6.39
61703;BMP280;47622;47.726;3.298;2022-11-20T00:04:54;98979.25;;;6.36
61703;BMP280;47622;47.726;3.298;2022-11-20T00:07:20;98986.56;;;6.34
61703;BMP280;47622;47.726;3.298;2022-11-20T00:09:46;98981.84;;;6.36
61703;BMP280;47622;47.726;3.298;2022-11-20T00:12:12;98982.59;;;6.41
61703;BMP280;47622;47.726;3.298;2022-11-20T00:14:37;98983.81;;;6.49
61703;BMP280;47622;47.726;3.298;2022-11-20T00:17:03;98972.09;;;6.51
61703;BMP280;47622;47.726;3.298;2022-11-20T00:19:29;98977.63;;;6.45
61703;BMP280;47622;47.726;3.298;2022-11-20T00:21:55;98973.44;;;6.44
61703;BMP280;47622;47.726;3.298;2022-11-20T00:24:20;98980.97;;;6.50
61703;BMP280;47622;47.726;3.298;2022-11-20T00:26:46;98981.25;;;6.44
61703;BMP280;47622;47.726;3.298;2022-11-20T00:29:12;98982.06;;;6.44
61703;BMP280;47622;47.726;3.298;2022-11-20T00:31:38;98976.59;;;6.41
61703;BMP280;47622;47.726;3.298;2022-11-20T00:34:03;98979.19;;;6.46
61703;BMP280;47622;47.726;3.298;2022-11-20T00:36:32;98980.25;;;6.40
61703;BMP280;47622;47.726;3.298;2022-11-20T00:38:59;98986.25;;;6.40
61703;BMP280;47622;47.726;3.298;2022-11-20T00:41:26;98987.03;;;6.41
61703;BMP280;47622;47.726;3.298;2022-11-20T00:43:54;98989.34;;;6.42
61703;BMP280;47622;47.726;3.298;2022-11-20T00:46:22;98991.19;;;6.37
61703;BMP280;47622;47.726;3.298;2022-11-20T00:48:48;98988.88;;;6.35
61703;BMP280;47622;47.726;3.298;2022-11-20T00:51:17;98992.84;;;6.27
61703;BMP280;47622;47.726;3.298;2022-11-20T00:53:43;98987.41;;;6.24
61703;BMP280;47622;47.726;3.298;2022-11-20T00:56:12;98988.50;;;6.18
61703;BMP280;47622;47.726;3.298;2022-11-20T00:58:40;98986.63;;;6.23
61703;BMP280;47622;47.726;3.298;2022-11-20T01:01:14;98989.75;;;6.20
61703;BMP280;47622;47.726;3.298;2022-11-20T01:03:43;98979.84;;;6.22
61703;BMP280;47622;47.726;3.298;2022-11-20T01:06:14;98986.63;;;6.23
61703;BMP280;47622;47.726;3.298;2022-11-20T01:08:41;98991.28;;;6.26
61703;BMP280;47622;47.726;3.298;2022-11-20T01:11:12;98987.88;;;6.31
61703;BMP280;47622;47.726;3.298;2022-11-20T01:13:39;98994.84;;;6.36
61703;BMP280;47622;47.726;3.298;2022-11-20T01:16:17;98994.84;;;6.36
61703;BMP280;47622;47.726;3.298;2022-11-20T01:18:45;98997.72;;;6.39
61703;BMP280;47622;47.726;3.298;2022-11-20T01:21:13;98990.13;;;6.43
61703;BMP280;47622;47.726;3.298;2022-11-20T01:23:42;98983.63;;;6.45
61703;BMP280;47622;47.726;3.298;2022-11-20T01:26:14;98989.59;;;6.46
61703;BMP280;47622;47.726;3.298;2022-11-20T01:28:41;98984.16;;;6.42
61703;BMP280;47622;47.726;3.298;2022-11-20T01:31:18;98984.41;;;6.46
61703;BMP280;47622;47.726;3.298;2022-11-20T01:33:46;98989.03;;;6.49
61703;BMP280;47622;47.726;3.298;2022-11-20T01:36:13;98982.50;;;6.51
61703;BMP280;47622;47.726;3.298;2022-11-20T01:38:39;98990.59;;;6.50
61703;BMP280;47622;47.726;3.298;2022-11-20T01:41:06;98990.91;;;6.43
61703;BMP280;47622;47.726;3.298;2022-11-20T01:43:33;98988.34;;;6.33
61703;BMP280;47622;47.726;3.298;2022-11-20T01:46:16;98993.09;;;6.31
61703;BMP280;47622;47.726;3.298;2022-11-20T01:48:50;98993.91;;;6.21
61703;BMP280;47622;47.726;3.298;2022-11-20T01:53:49;98989.31;;;6.08
61703;BMP280;47622;47.726;3.298;2022-11-20T01:56:16;98992.41;;;6.10
61703;BMP280;47622;47.726;3.298;2022-11-20T01:58:47;98990.41;;;6.02
61703;BMP280;47622;47.726;3.298;2022-11-20T02:01:14;98996.66;;;5.96
61703;BMP280;47622;47.726;3.298;2022-11-20T02:03:40;98997.25;;;5.83
61703;BMP280;47622;47.726;3.298;2022-11-20T02:06:48;98996.53;;;5.72
61703;BMP280;47622;47.726;3.298;2022-11-20T02:09:15;98992.13;;;5.62
61703;BMP280;47622;47.726;3.298;2022-11-20T02:11:41;98988.00;;;5.56
61703;BMP280;47622;47.726;3.298;2022-11-20T02:14:07;98986.97;;;5.52
61703;BMP280;47622;47.726;3.298;2022-11-20T02:16:37;98986.19;;;5.47
61703;BMP280;47622;47.726;3.298;2022-11-20T02:19:08;98978.72;;;5.40
61703;BMP280;47622;47.726;3.298;2022-11-20T02:21:47;98975.63;;;5.28
61703;BMP280;47622;47.726;3.298;2022-11-20T02:24:15;98978.25;;;5.23
61703;BMP280;47622;47.726;3.298;2022-11-20T02:27:04;98983.66;;;5.16
61703;BMP280;47622;47.726;3.298;2022-11-20T02:29:38;98985.53;;;5.10
61703;BMP280;47622;47.726;3.298;2022-11-20T02:32:05;98983.19;;;5.04
61703;BMP280;47622;47.726;3.298;2022-11-20T02:34:31;98980.88;;;5.02
61703;BMP280;47622;47.726;3.298;2022-11-20T02:36:58;98980.84;;;4.97
61703;BMP280;47622;47.726;3.298;2022-11-20T02:39:25;98986.34;;;4.91
61703;BMP280;47622;47.726;3.298;2022-11-20T02:41:56;98980.88;;;4.87
61703;BMP280;47622;47.726;3.298;2022-11-20T02:44:22;98980.59;;;4.83
61703;BMP280;47622;47.726;3.298;2022-11-20T02:46:48;98983.19;;;4.83
61703;BMP280;47622;47.726;3.298;2022-11-20T02:49:13;98985.56;;;4.90
61703;BMP280;47622;47.726;3.298;2022-11-20T02:51:39;98988.66;;;4.87
61703;BMP280;47622;47.726;3.298;2022-11-20T02:54:05;98991.75;;;4.84
61703;BMP280;47622;47.726;3.298;2022-11-20T02:56:30;98992.81;;;4.83
61703;BMP280;47622;47.726;3.298;2022-11-20T02:58:56;98990.22;;;4.78
61703;BMP280;47622;47.726;3.298;2022-11-20T03:01:21;98986.06;;;4.77
61703;BMP280;47622;47.726;3.298;2022-11-20T03:03:47;98981.41;;;4.64
61703;BMP280;47622;47.726;3.298;2022-11-20T03:06:17;98988.66;;;4.62
61703;BMP280;47622;47.726;3.298;2022-11-20T03:08:43;98974.63;;;4.68
61703;BMP280;47622;47.726;3.298;2022-11-20T03:11:09;98973.06;;;4.62
61703;BMP280;47622;47.726;3.298;2022-11-20T03:13:35;98969.97;;;4.59
61703;BMP280;47622;47.726;3.298;2022-11-20T03:16:09;98959.06;;;4.63
61703;BMP280;47622;47.726;3.298;2022-11-20T03:18:35;98957.50;;;4.62
61703;BMP280;47622;47.726;3.298;2022-11-20T03:21:01;98955.44;;;4.53
61703;BMP280;47622;47.726;3.298;2022-11-20T03:23:29;98954.91;;;4.36
61703;BMP280;47622;47.726;3.298;2022-11-20T03:25:55;98956.47;;;4.32
61703;BMP280;47622;47.726;3.298;2022-11-20T03:28:21;98950.50;;;4.31
61703;BMP280;47622;47.726;3.298;2022-11-20T03:30:47;98938.81;;;4.29
61703;BMP280;47622;47.726;3.298;2022-11-20T03:33:12;98955.69;;;4.31
61703;BMP280;47622;47.726;3.298;2022-11-20T03:35:38;98952.53;;;4.19
61703;BMP280;47622;47.726;3.298;2022-11-20T03:38:04;98961.63;;;4.12
61703;BMP280;47622;47.726;3.298;2022-11-20T03:40:29;98962.13;;;4.09
61703;BMP280;47622;47.726;3.298;2022-11-20T03:42:55;98954.34;;;4.09
61703;BMP280;47622;47.726;3.298;2022-11-20T03:45:20;98955.88;;;4.10
61703;BMP280;47622;47.726;3.298;2022-11-20T03:47:46;98951.50;;;4.10
61703;BMP280;47622;47.726;3.298;2022-11-20T03:50:13;98949.94;;;4.19
61703;BMP280;47622;47.726;3.298;2022-11-20T03:52:39;98950.50;;;4.26
61703;BMP280;47622;47.726;3.298;2022-11-20T03:55:06;98946.56;;;4.24
61703;BMP280;47622;47.726;3.298;2022-11-20T03:57:31;98953.06;;;4.21
61703;BMP280;47622;47.726;3.298;2022-11-20T03:59:57;98951.75;;;4.14
61703;BMP280;47622;47.726;3.298;2022-11-20T04:02:23;98962.13;;;4.19
61703;BMP280;47622;47.726;3.298;2022-11-20T04:04:48;98961.63;;;4.17
61703;BMP280;47622;47.726;3.298;2022-11-20T04:07:14;98959.28;;;4.15
61703;BMP280;47622;47.726;3.298;2022-11-20T04:09:40;98949.44;;;4.22
61703;BMP280;47622;47.726;3.298;2022-11-20T04:12:06;98943.97;;;4.19
61703;BMP280;47622;47.726;3.298;2022-11-20T04:14:32;98938.50;;;4.20
61703;BMP280;47622;47.726;3.298;2022-11-20T04:16:57;98952.25;;;4.06
61703;BMP280;47622;47.726;3.298;2022-11-20T04:19:23;98940.84;;;3.96
61703;BMP280;47622;47.726;3.298;2022-11-20T04:21:48;98939.25;;;3.90
61703;BMP280;47622;47.726;3.298;2022-11-20T04:24:14;98929.13;;;3.84
61703;BMP280;47622;47.726;3.298;2022-11-20T04:26:40;98930.91;;;3.83
61703;BMP280;47622;47.726;3.298;2022-11-20T04:29:06;98935.06;;;3.79
61703;BMP280;47622;47.726;3.298;2022-11-20T04:31:34;98930.94;;;3.73
61703;BMP280;47622;47.726;3.298;2022-11-20T04:34:01;98929.88;;;3.69
61703;BMP280;47622;47.726;3.298;2022-11-20T04:36:28;98933.50;;;3.68
61703;BMP280;47622;47.726;3.298;2022-11-20T04:38:55;98935.06;;;3.69
61703;BMP280;47622;47.726;3.298;2022-11-20T04:41:24;98931.41;;;3.65
61703;BMP280;47622;47.726;3.298;2022-11-20T04:43:52;98939.16;;;3.65
61703;BMP280;47622;47.726;3.298;2022-11-20T04:46:20;98930.34;;;3.66
61703;BMP280;47622;47.726;3.298;2022-11-20T04:48:47;98929.28;;;3.62
61703;BMP280;47622;47.726;3.298;2022-11-20T04:51:13;98930.34;;;3.61
61703;BMP280;47622;47.726;3.298;2022-11-20T04:53:39;98930.88;;;3.63
61703;BMP280;47622;47.726;3.298;2022-11-20T04:56:07;98931.41;;;3.65
61703;BMP280;47622;47.726;3.298;2022-11-20T04:58:34;98931.13;;;3.66
61703;BMP280;47622;47.726;3.298;2022-11-20T05:01:17;98931.13;;;3.66
61703;BMP280;47622;47.726;3.298;2022-11-20T05:03:43;98937.09;;;3.67
61703;BMP280;47622;47.726;3.298;2022-11-20T05:06:11;98929.59;;;3.65
61703;BMP280;47622;47.726;3.298;2022-11-20T05:08:37;98938.63;;;3.58
61703;BMP280;47622;47.726;3.298;2022-11-20T05:11:05;98945.84;;;3.56
61703;BMP280;47622;47.726;3.298;2022-11-20T05:13:31;98940.16;;;3.48
61703;BMP280;47622;47.726;3.298;2022-11-20T05:16:04;98946.88;;;3.49
61703;BMP280;47622;47.726;3.298;2022-11-20T05:18:30;98937.03;;;3.46
61703;BMP280;47622;47.726;3.298;2022-11-20T05:20:57;98938.03;;;3.45
61703;BMP280;47622;47.726;3.298;2022-11-20T05:23:23;98929.47;;;3.40
61703;BMP280;47622;47.726;3.298;2022-11-20T05:25:52;98935.97;;;3.42
61703;BMP280;47622;47.726;3.298;2022-11-20T05:28:18;98937.53;;;3.43
61703;BMP280;47622;47.726;3.298;2022-11-20T05:30:44;98932.34;;;3.43
61703;BMP280;47622;47.726;3.298;2022-11-20T05:33:09;98929.97;;;3.37
61703;BMP280;47622;47.726;3.298;2022-11-20T05:35:35;98931.84;;;3.46
61703;BMP280;47622;47.726;3.298;2022-11-20T05:38:01;98925.88;;;3.46
61703;BMP280;47622;47.726;3.298;2022-11-20T05:40:26;98920.13;;;3.39
61703;BMP280;47622;47.726;3.298;2022-11-20T05:42:52;98923.81;;;3.48
61703;BMP280;47622;47.726;3.298;2022-11-20T05:45:18;98927.66;;;3.40
61703;BMP280;47622;47.726;3.298;2022-11-20T05:47:43;98923.50;;;3.39
61703;BMP280;47622;47.726;3.298;2022-11-20T05:50:09;98913.19;;;3.44
61703;BMP280;47622;47.726;3.298;2022-11-20T05:52:34;98909.56;;;3.45
61703;BMP280;47622;47.726;3.298;2022-11-20T05:55:00;98909.53;;;3.40
61703;BMP280;47622;47.726;3.298;2022-11-20T05:57:26;98914.66;;;3.30
61703;BMP280;47622;47.726;3.298;2022-11-20T05:59:51;98916.97;;;3.27
61703;BMP280;47622;47.726;3.298;2022-11-20T06:02:17;98910.75;;;3.22
61703;BMP280;47622;47.726;3.298;2022-11-20T06:04:43;98918.78;;;3.26
61703;BMP280;47622;47.726;3.298;2022-11-20T06:07:08;98916.16;;;3.16
61703;BMP280;47622;47.726;3.298;2022-11-20T06:09:34;98917.44;;;3.18
61703;BMP280;47622;47.726;3.298;2022-11-20T06:12:00;98910.50;;;3.29
61703;BMP280;47622;47.726;3.298;2022-11-20T06:14:25;98917.81;;;3.37
61703;BMP280;47622;47.726;3.298;2022-11-20T06:16:51;98919.03;;;3.30
61703;BMP280;47622;47.726;3.298;2022-11-20T06:19:17;98902.75;;;3.34
61703;BMP280;47622;47.726;3.298;2022-11-20T06:21:42;98917.28;;;3.40
61703;BMP280;47622;47.726;3.298;2022-11-20T06:24:11;98915.94;;;3.28
61703;BMP280;47622;47.726;3.298;2022-11-20T06:26:37;98922.19;;;3.32
61703;BMP280;47622;47.726;3.298;2022-11-20T06:29:02;98914.69;;;3.40
61703;BMP280;47622;47.726;3.298;2022-11-20T06:31:28;98915.78;;;3.49
61703;BMP280;47622;47.726;3.298;2022-11-20T06:33:54;98916.84;;;3.54
61703;BMP280;47622;47.726;3.298;2022-11-20T06:36:21;98913.75;;;3.62
61703;BMP280;47622;47.726;3.298;2022-11-20T06:38:48;98905.22;;;3.66
61703;BMP280;47622;47.726;3.298;2022-11-20T06:41:16;98908.53;;;3.46
61703;BMP280;47622;47.726;3.298;2022-11-20T06:43:42;98918.41;;;3.60
61703;BMP280;47622;47.726;3.298;2022-11-20T06:46:12;98923.06;;;3.58
61703;BMP280;47622;47.726;3.298;2022-11-20T06:48:39;98919.94;;;3.56
61703;BMP280;47622;47.726;3.298;2022-11-20T06:51:07;98908.78;;;3.50
61703;BMP280;47622;47.726;3.298;2022-11-20T06:53:33;98917.88;;;3.47
61703;BMP280;47622;47.726;3.298;2022-11-20T06:55:59;98915.78;;;3.49
61703;BMP280;47622;47.726;3.298;2022-11-20T06:58:29;98920.94;;;3.44
61703;BMP280;47622;47.726;3.298;2022-11-20T07:01:02;98927.28;;;3.69
61703;BMP280;47622;47.726;3.298;2022-11-20T07:03:28;98932.50;;;3.84
61703;BMP280;47622;47.726;3.298;2022-11-20T07:05:57;98931.47;;;3.85
61703;BMP280;47622;47.726;3.298;2022-11-20T07:08:24;98925.75;;;3.83
61703;BMP280;47622;47.726;3.298;2022-11-20T07:10:50;98936.38;;;3.82
61703;BMP280;47622;47.726;3.298;2022-11-20T07:13:15;98942.88;;;3.84
61703;BMP280;47622;47.726;3.298;2022-11-20T07:15:41;98949.09;;;3.88
61703;BMP280;47622;47.726;3.298;2022-11-20T07:18:07;98946.00;;;3.91
61703;BMP280;47622;47.726;3.298;2022-11-20T07:20:32;98954.84;;;3.95
61703;BMP280;47622;47.726;3.298;2022-11-20T07:22:58;98950.16;;;4.02
61703;BMP280;47622;47.726;3.298;2022-11-20T07:25:28;98935.66;;;3.96
61703;BMP280;47622;47.726;3.298;2022-11-20T07:28:00;98943.47;;;4.12
61703;BMP280;47622;47.726;3.298;2022-11-20T07:30:27;98941.91;;;4.11
61703;BMP280;47622;47.726;3.298;2022-11-20T07:32:53;98938.78;;;4.09
61703;BMP280;47622;47.726;3.298;2022-11-20T07:35:19;98942.19;;;4.29
61703;BMP280;47622;47.726;3.298;2022-11-20T07:37:45;98941.41;;;4.34
61703;BMP280;47622;47.726;3.298;2022-11-20T07:40:12;98942.47;;;4.48
61703;BMP280;47622;47.726;3.298;2022-11-20T07:42:38;98936.22;;;4.44
61703;BMP280;47622;47.726;3.298;2022-11-20T07:45:04;98947.13;;;4.46
61703;BMP280;47622;47.726;3.298;2022-11-20T07:47:35;98952.09;;;4.53
61703;BMP280;47622;47.726;3.298;2022-11-20T07:50:03;98959.88;;;4.53
61703;BMP280;47622;47.726;3.298;2022-11-20T07:52:28;98959.06;;;4.57
61703;BMP280;47622;47.726;3.298;2022-11-20T07:54:54;98959.31;;;4.61
61703;BMP280;47622;47.726;3.298;2022-11-20T07:57:20;98957.78;;;4.65
61703;BMP280;47622;47.726;3.298;2022-11-20T07:59:45;98958.28;;;4.67
61703;BMP280;47622;47.726;3.298;2022-11-20T08:02:11;98958.03;;;4.69
61703;BMP280;47622;47.726;3.298;2022-11-20T08:04:37;98970.97;;;4.79
61703;BMP280;47622;47.726;3.298;2022-11-20T08:07:02;98965.28;;;4.77
61703;BMP280;47622;47.726;3.298;2022-11-20T08:09:28;98969.97;;;4.80
61703;BMP280;47622;47.726;3.298;2022-11-20T08:11:54;98975.97;;;4.75
61703;BMP280;47622;47.726;3.298;2022-11-20T08:14:38;98967.38;;;4.80
61703;BMP280;47622;47.726;3.298;2022-11-20T08:17:04;98971.50;;;5.01
61703;BMP280;47622;47.726;3.298;2022-11-20T08:19:30;98969.44;;;5.08
61703;BMP280;47622;47.726;3.298;2022-11-20T08:21:55;98970.94;;;5.14
61703;BMP280;47622;47.726;3.298;2022-11-20T08:24:21;98975.13;;;5.10
61703;BMP280;47622;47.726;3.298;2022-11-20T08:26:47;98972.03;;;5.08
61703;BMP280;47622;47.726;3.298;2022-11-20T08:29:12;98978.47;;;5.26
61703;BMP280;47622;47.726;3.298;2022-11-20T08:31:38;98976.84;;;5.46
61703;BMP280;47622;47.726;3.298;2022-11-20T08:34:04;98975.00;;;5.51
61703;BMP280;47622;47.726;3.298;2022-11-20T08:36:32;98986.50;;;5.35
61703;BMP280;47622;47.726;3.298;2022-11-20T08:38:59;98979.94;;;5.48
61703;BMP280;47622;47.726;3.298;2022-11-20T08:41:24;98992.19;;;5.47
61703;BMP280;47622;47.726;3.298;2022-11-20T08:43:57;98989.56;;;5.52
61703;BMP280;47622;47.726;3.298;2022-11-20T08:46:25;98983.53;;;5.67
61703;BMP280;47622;47.726;3.298;2022-11-20T08:48:51;98978.06;;;5.74
61703;BMP280;47622;47.726;3.298;2022-11-20T08:51:17;98982.72;;;5.77
61703;BMP280;47622;47.726;3.298;2022-11-20T08:53:43;98978.59;;;5.70
61703;BMP280;47622;47.726;3.298;2022-11-20T08:56:09;98966.41;;;6.10
61703;BMP280;47622;47.726;3.298;2022-11-20T08:58:36;98958.19;;;6.90
61703;BMP280;47622;47.726;3.298;2022-11-20T09:01:02;98955.91;;;8.12
61703;BMP280;47622;47.726;3.298;2022-11-20T09:03:28;98964.75;;;8.62
61703;BMP280;47622;47.726;3.298;2022-11-20T09:06:01;98957.63;;;9.95
61703;BMP280;47622;47.726;3.298;2022-11-20T09:08:27;98958.66;;;10.78
61703;BMP280;47622;47.726;3.298;2022-11-20T09:10:55;98961.06;;;12.09
61703;BMP280;47622;47.726;3.298;2022-11-20T09:13:22;98957.88;;;12.42
61703;BMP280;47622;47.726;3.298;2022-11-20T09:15:55;98950.47;;;12.73
61703;BMP280;47622;47.726;3.298;2022-11-20T09:18:22;98948.84;;;12.13
61703;BMP280;47622;47.726;3.298;2022-11-20T09:20:47;98942.91;;;12.34
61703;BMP280;47622;47.726;3.298;2022-11-20T09:23:14;98936.91;;;12.16
61703;BMP280;47622;47.726;3.298;2022-11-20T09:25:40;98929.00;;;11.35
61703;BMP280;47622;47.726;3.298;2022-11-20T09:28:06;98917.19;;;10.80
61703;BMP280;47622;47.726;3.298;2022-11-20T09:30:31;98927.84;;;10.13
61703;BMP280;47622;47.726;3.298;2022-11-20T09:32:57;98920.22;;;9.81
61703;BMP280;47622;47.726;3.298;2022-11-20T09:35:22;98919.50;;;9.66
61703;BMP280;47622;47.726;3.298;2022-11-20T09:37:48;98915.94;;;9.26
61703;BMP280;47622;47.726;3.298;2022-11-20T09:40:21;98901.22;;;9.53
61703;BMP280;47622;47.726;3.298;2022-11-20T09:48:19;98897.28;;;11.83
61703;BMP280;47622;47.726;3.298;2022-11-20T09:55:57;98894.84;;;11.61
61703;BMP280;47622;47.726;3.298;2022-11-20T09:58:39;98894.25;;;11.12
61703;BMP280;47622;47.726;3.298;2022-11-20T10:01:14;98896.38;;;10.92
61703;BMP280;47622;47.726;3.298;2022-11-20T10:04:02;98880.41;;;10.54
61703;BMP280;47622;47.726;3.298;2022-11-20T10:06:32;98872.69;;;10.18
61703;BMP280;47622;47.726;3.298;2022-11-20T10:09:31;98867.72;;;10.08
61703;BMP280;47622;47.726;3.298;2022-11-20T10:14:55;98868.00;;;9.53
61703;BMP280;47622;47.726;3.298;2022-11-20T10:17:59;98857.75;;;9.21
61703;BMP280;47622;47.726;3.298;2022-11-20T10:25:43;98859.72;;;9.24
61703;BMP280;47622;47.726;3.298;2022-11-20T10:28:43;98871.94;;;9.14
61703;BMP280;47622;47.726;3.298;2022-11-20T10:31:17;98865.03;;;8.96
61703;BMP280;47622;47.726;3.298;2022-11-20T10:33:48;98854.19;;;8.89
61703;BMP280;47622;47.726;3.298;2022-11-20T10:36:33;98860.56;;;8.97
61703;BMP280;47622;47.726;3.298;2022-11-20T10:39:10;98855.91;;;9.07
61703;BMP280;47622;47.726;3.298;2022-11-20T10:41:44;98852.16;;;9.00
61703;BMP280;47622;47.726;3.298;2022-11-20T10:44:27;98851.66;;;9.11
61703;BMP280;47622;47.726;3.298;2022-11-20T10:47:16;98847.84;;;9.17
61703;BMP280;47622;47.726;3.298;2022-11-20T10:49:45;98850.47;;;9.17
61703;BMP280;47622;47.726;3.298;2022-11-20T10:52:33;98841.06;;;9.16
61703;BMP280;47622;47.726;3.298;2022-11-20T11:00:13;98838.31;;;8.72
61703;BMP280;47622;47.726;3.298;2022-11-20T11:02:44;98839.69;;;8.55
61703;BMP280;47622;47.726;3.298;2022-11-20T11:05:34;98837.16;;;8.37
61703;BMP280;47622;47.726;3.298;2022-11-20T11:08:03;98827.69;;;8.27
61703;BMP280;47622;47.726;3.298;2022-11-20T11:10:40;98827.00;;;8.35
61703;BMP280;47622;47.726;3.298;2022-11-20T11:13:28;98818.59;;;8.38
61703;BMP280;47622;47.726;3.298;2022-11-20T11:15:54;98821.19;;;8.24
61703;BMP280;47622;47.726;3.298;2022-11-20T11:18:30;98816.66;;;8.30
61703;BMP280;47622;47.726;3.298;2022-11-20T11:21:00;98815.16;;;7.96
61703;BMP280;47622;47.726;3.298;2022-11-20T11:23:35;98804.22;;;7.94
61703;BMP280;47622;47.726;3.298;2022-11-20T11:26:05;98794.50;;;7.81
61703;BMP280;47622;47.726;3.298;2022-11-20T11:28:31;98787.28;;;7.78
61703;BMP280;47622;47.726;3.298;2022-11-20T11:30:57;98777.56;;;7.65
61703;BMP280;47622;47.726;3.298;2022-11-20T11:33:25;98776.16;;;7.72
61703;BMP280;47622;47.726;3.298;2022-11-20T11:35:56;98779.03;;;7.71
61703;BMP280;47622;47.726;3.298;2022-11-20T11:38:41;98762.88;;;7.88
61703;BMP280;47622;47.726;3.298;2022-11-20T11:41:24;98761.69;;;8.08
61703;BMP280;47622;47.726;3.298;2022-11-20T11:43:55;98747.59;;;8.09
61703;BMP280;47622;47.726;3.298;2022-11-20T11:46:45;98746.88;;;8.03
61703;BMP280;47622;47.726;3.298;2022-11-20T11:49:18;98741.31;;;8.10
61703;BMP280;47622;47.726;3.298;2022-11-20T11:54:53;98739.09;;;8.17
61703;BMP280;47622;47.726;3.298;2022-11-20T11:57:40;98733.97;;;8.25
61703;BMP280;47622;47.726;3.298;2022-11-20T12:00:14;98736.75;;;8.29
61703;BMP280;47622;47.726;3.298;2022-11-20T12:05:27;98733.66;;;8.41
61703;BMP280;47622;47.726;3.298;2022-11-20T12:11:13;98730.91;;;8.46
61703;BMP280;47622;47.726;3.298;2022-11-20T12:14:03;98726.50;;;8.46
61703;BMP280;47622;47.726;3.298;2022-11-20T12:16:35;98721.56;;;8.45
61703;BMP280;47622;47.726;3.298;2022-11-20T12:19:01;98707.34;;;8.37
61703;BMP280;47622;47.726;3.298;2022-11-20T12:21:39;98702.53;;;8.31
61703;BMP280;47622;47.726;3.298;2022-11-20T12:27:02;98696.16;;;8.23
61703;BMP280;47622;47.726;3.298;2022-11-20T12:29:46;98693.63;;;8.32
61703;BMP280;47622;47.726;3.298;2022-11-20T12:32:42;98698.09;;;8.31
61703;BMP280;47622;47.726;3.298;2022-11-20T12:35:32;98698.84;;;8.32
61703;BMP280;47622;47.726;3.298;2022-11-20T12:58:36;98671.81;;;8.00
61703;BMP280;47622;47.726;3.298;2022-11-20T13:03:38;98663.88;;;7.91
61703;BMP280;47622;47.726;3.298;2022-11-20T13:06:11;98651.69;;;8.00
61703;BMP280;47622;47.726;3.298;2022-11-20T13:08:45;98655.47;;;7.94
61703;BMP280;47622;47.726;3.298;2022-11-20T13:14:07;98650.44;;;7.84
61703;BMP280;47622;47.726;3.298;2022-11-20T13:19:11;98662.50;;;7.94
61703;BMP280;47622;47.726;3.298;2022-11-20T13:21:48;98662.88;;;7.87
61703;BMP280;47622;47.726;3.298;2022-11-20T13:24:21;98677.59;;;7.83
61703;BMP280;47622;47.726;3.298;2022-11-20T13:27:18;98673.25;;;7.79
61703;BMP280;47622;47.726;3.298;2022-11-20T13:29:47;98660.50;;;7.77
61703;BMP280;47622;47.726;3.298;2022-11-20T13:34:39;98650.91;;;7.72
61703;BMP280;47622;47.726;3.298;2022-11-20T13:37:05;98651.09;;;7.62
61703;BMP280;47622;47.726;3.298;2022-11-20T13:39:33;98652.88;;;7.67
61703;BMP280;47622;47.726;3.298;2022-11-20T13:42:02;98643.56;;;7.75
61703;BMP280;47622;47.726;3.298;2022-11-20T13:44:31;98648.00;;;7.74
61703;BMP280;47622;47.726;3.298;2022-11-20T13:47:03;98649.94;;;7.82
61703;BMP280;47622;47.726;3.298;2022-11-20T13:49:33;98639.69;;;7.86
61703;BMP280;47622;47.726;3.298;2022-11-20T13:55:07;98638.94;;;7.85
61703;BMP280;47622;47.726;3.298;2022-11-20T14:00:24;98633.34;;;7.78
61703;BMP280;47622;47.726;3.298;2022-11-20T14:03:07;98626.06;;;7.75
61703;BMP280;47622;47.726;3.298;2022-11-20T14:05:40;98618.84;;;7.72
61703;BMP280;47622;47.726;3.298;2022-11-20T14:08:23;98627.81;;;7.80
61703;BMP280;47622;47.726;3.298;2022-11-20T14:10:49;98627.94;;;7.88
61703;BMP280;47622;47.726;3.298;2022-11-20T14:13:19;98623.75;;;7.87
61703;BMP280;47622;47.726;3.298;2022-11-20T14:15:45;98631.00;;;7.90
61703;BMP280;47622;47.726;3.298;2022-11-20T14:18:25;98640.69;;;7.90
61703;BMP280;47622;47.726;3.298;2022-11-20T14:20:51;98642.22;;;7.91
61703;BMP280;47622;47.726;3.298;2022-11-20T14:23:27;98638.94;;;7.99
61703;BMP280;47622;47.726;3.298;2022-11-20T14:25:53;98634.28;;;7.82
61703;BMP280;47622;47.726;3.298;2022-11-20T14:28:25;98636.03;;;7.87
61703;BMP280;47622;47.726;3.298;2022-11-20T14:30:52;98634.28;;;7.82
61703;BMP280;47622;47.726;3.298;2022-11-20T14:33:18;98638.38;;;7.88
61703;BMP280;47622;47.726;3.298;2022-11-20T14:35:47;98641.44;;;8.04
61703;BMP280;47622;47.726;3.298;2022-11-20T14:38:24;98641.81;;;7.97
61703;BMP280;47622;47.726;3.298;2022-11-20T14:40:50;98651.88;;;7.90
61703;BMP280;47622;47.726;3.298;2022-11-20T14:43:23;98647.63;;;7.94
61703;BMP280;47622;47.726;3.298;2022-11-20T14:46:00;98643.75;;;8.06
61703;BMP280;47622;47.726;3.298;2022-11-20T14:48:38;98652.84;;;7.94
61703;BMP280;47622;47.726;3.298;2022-11-20T14:51:05;98664.63;;;8.06
61703;BMP280;47622;47.726;3.298;2022-11-20T14:53:30;98669.09;;;7.91
61703;BMP280;47622;47.726;3.298;2022-11-20T14:55:58;98669.09;;;7.91
61703;BMP280;47622;47.726;3.298;2022-11-20T14:58:29;98668.41;;;7.86
61703;BMP280;47622;47.726;3.298;2022-11-20T15:01:06;98656.63;;;7.88
61703;BMP280;47622;47.726;3.298;2022-11-20T15:03:38;98653.81;;;7.98
61703;BMP280;47622;47.726;3.298;2022-11-20T15:06:10;98659.53;;;8.00
61703;BMP280;47622;47.726;3.298;2022-11-20T15:08:36;98669.66;;;8.02
61703;BMP280;47622;47.726;3.298;2022-11-20T15:11:02;98665.81;;;7.99
61703;BMP280;47622;47.726;3.298;2022-11-20T15:13:32;98667.34;;;8.00
61703;BMP280;47622;47.726;3.298;2022-11-20T15:16:00;98662.31;;;8.04
61703;BMP280;47622;47.726;3.298;2022-11-20T15:18:30;98663.88;;;7.91
61703;BMP280;47622;47.726;3.298;2022-11-20T15:20:58;98665.81;;;7.99
61703;BMP280;47622;47.726;3.298;2022-11-20T15:23:26;98671.22;;;7.89
61703;BMP280;47622;47.726;3.298;2022-11-20T15:25:51;98670.16;;;7.90
61703;BMP280;47622;47.726;3.298;2022-11-20T15:28:35;98669.38;;;7.90
61703;BMP280;47622;47.726;3.298;2022-11-20T15:31:02;98675.94;;;7.87
61703;BMP280;47622;47.726;3.298;2022-11-20T15:33:28;98681.66;;;7.89
61703;BMP280;47622;47.726;3.298;2022-11-20T15:35:54;98691.34;;;7.89
61703;BMP280;47622;47.726;3.298;2022-11-20T15:38:20;98702.53;;;7.89
61703;BMP280;47622;47.726;3.298;2022-11-20T15:40:46;98697.03;;;7.91
61703;BMP280;47622;47.726;3.298;2022-11-20T15:43:11;98699.44;;;7.87
61703;BMP280;47622;47.726;3.298;2022-11-20T15:45:47;98710.44;;;7.84
61703;BMP280;47622;47.726;3.298;2022-11-20T15:48:26;98700.13;;;7.79